sensor_id;sensor_type;location;lat;lon;timestamp;P1;durP1;ratioP1;P2;durP2;ratioP2
70102;SDS011;57470;50.034;15.256;2023-04-29T00:00:33;11.00;;;2.53;;
70102;SDS011;57470;50.034;15.256;2023-04-29T00:02:58;7.73;;;3.17;;
70102;SDS011;57470;50.034;15.256;2023-04-29T00:05:25;11.27;;;3.63;;
70102;SDS011;57470;50.034;15.256;2023-04-29T00:07:50;9.05;;;3.40;;
70102;SDS011;57470;50.034;15.256;2023-04-29T00:10:16;7.47;;;3.37;;
70102;SDS011;57470;50.034;15.256;2023-04-29T00:12:42;10.60;;;3.90;;
70102;SDS011;57470;50.034;15.256;2023-04-29T00:15:07;5.60;;;2.50;;
70102;SDS011;57470;50.034;15.256;2023-04-29T00:17:33;7.50;;;3.30;;
70102;SDS011;57470;50.034;15.256;2023-04-29T00:19:58;8.83;;;3.43;;
70102;SDS011;57470;50.034;15.256;2023-04-29T00:22:24;8.32;;;3.70;;
70102;SDS011;57470;50.034;15.256;2023-04-29T00:24:49;9.40;;;3.10;;
70102;SDS011;57470;50.034;15.256;2023-04-29T00:27:15;6.80;;;2.77;;
70102;SDS011;57470;50.034;15.256;2023-04-29T00:29:41;9.75;;;3.22;;
70102;SDS011;57470;50.034;15.256;2023-04-29T00:32:07;9.27;;;3.65;;
70102;SDS011;57470;50.034;15.256;2023-04-29T00:34:33;7.57;;;3.67;;
70102;SDS011;57470;50.034;15.256;2023-04-29T00:36:58;11.17;;;3.70;;
70102;SDS011;57470;50.034;15.256;2023-04-29T00:39:23;7.23;;;3.27;;
70102;SDS011;57470;50.034;15.256;2023-04-29T00:41:49;10.52;;;3.78;;
70102;SDS011;57470;50.034;15.256;2023-04-29T00:44:15;9.05;;;3.80;;
70102;SDS011;57470;50.034;15.256;2023-04-29T00:46:41;9.73;;;3.40;;
70102;SDS011;57470;50.034;15.256;2023-04-29T00:49:07;7.05;;;3.33;;
70102;SDS011;57470;50.034;15.256;2023-04-29T00:51:33;8.83;;;3.23;;
70102;SDS011;57470;50.034;15.256;2023-04-29T00:54:00;8.03;;;3.33;;
70102;SDS011;57470;50.034;15.256;2023-04-29T00:56:26;6.47;;;3.28;;
70102;SDS011;57470;50.034;15.256;2023-04-29T00:58:56;8.02;;;3.53;;
70102;SDS011;57470;50.034;15.256;2023-04-29T01:01:21;7.60;;;3.00;;
70102;SDS011;57470;50.034;15.256;2023-04-29T01:03:48;9.15;;;3.47;;
70102;SDS011;57470;50.034;15.256;2023-04-29T01:14:30;8.77;;;2.90;;
70102;SDS011;57470;50.034;15.256;2023-04-29T01:16:58;6.68;;;2.70;;
70102;SDS011;57470;50.034;15.256;2023-04-29T01:19:39;7.90;;;3.85;;
70102;SDS011;57470;50.034;15.256;2023-04-29T01:22:10;7.65;;;3.03;;
70102;SDS011;57470;50.034;15.256;2023-04-29T01:24:38;6.95;;;3.00;;
70102;SDS011;57470;50.034;15.256;2023-04-29T01:27:08;6.60;;;2.73;;
70102;SDS011;57470;50.034;15.256;2023-04-29T01:29:44;8.38;;;3.78;;
70102;SDS011;57470;50.034;15.256;2023-04-29T01:32:17;6.47;;;2.42;;
70102;SDS011;57470;50.034;15.256;2023-04-29T01:34:49;9.10;;;3.13;;
70102;SDS011;57470;50.034;15.256;2023-04-29T01:40:33;8.67;;;3.10;;
70102;SDS011;57470;50.034;15.256;2023-04-29T01:43:05;8.05;;;3.35;;
70102;SDS011;57470;50.034;15.256;2023-04-29T01:45:35;10.55;;;2.75;;
70102;SDS011;57470;50.034;15.256;2023-04-29T01:48:05;8.27;;;2.92;;
70102;SDS011;57470;50.034;15.256;2023-04-29T01:50:31;8.80;;;3.20;;
70102;SDS011;57470;50.034;15.256;2023-04-29T01:52:56;8.80;;;3.67;;
70102;SDS011;57470;50.034;15.256;2023-04-29T01:55:22;10.00;;;3.50;;
70102;SDS011;57470;50.034;15.256;2023-04-29T01:57:47;6.88;;;3.10;;
70102;SDS011;57470;50.034;15.256;2023-04-29T02:00:13;8.37;;;2.83;;
70102;SDS011;57470;50.034;15.256;2023-04-29T02:02:38;11.47;;;3.40;;
70102;SDS011;57470;50.034;15.256;2023-04-29T02:05:05;10.60;;;3.70;;
70102;SDS011;57470;50.034;15.256;2023-04-29T02:07:31;8.90;;;3.40;;
70102;SDS011;57470;50.034;15.256;2023-04-29T02:09:58;8.13;;;2.80;;
70102;SDS011;57470;50.034;15.256;2023-04-29T02:12:25;7.80;;;2.90;;
70102;SDS011;57470;50.034;15.256;2023-04-29T02:14:52;9.02;;;3.50;;
70102;SDS011;57470;50.034;15.256;2023-04-29T02:17:19;8.10;;;3.30;;
70102;SDS011;57470;50.034;15.256;2023-04-29T02:19:46;8.55;;;3.38;;
70102;SDS011;57470;50.034;15.256;2023-04-29T02:22:13;7.07;;;3.10;;
70102;SDS011;57470;50.034;15.256;2023-04-29T02:24:39;10.05;;;3.53;;
70102;SDS011;57470;50.034;15.256;2023-04-29T02:27:07;7.65;;;2.35;;
70102;SDS011;57470;50.034;15.256;2023-04-29T02:29:34;8.48;;;2.95;;
70102;SDS011;57470;50.034;15.256;2023-04-29T02:32:01;7.68;;;3.53;;
70102;SDS011;57470;50.034;15.256;2023-04-29T02:34:28;11.67;;;3.23;;
70102;SDS011;57470;50.034;15.256;2023-04-29T02:36:56;8.10;;;3.13;;
70102;SDS011;57470;50.034;15.256;2023-04-29T02:39:23;11.25;;;3.03;;
70102;SDS011;57470;50.034;15.256;2023-04-29T02:41:52;7.05;;;2.97;;
70102;SDS011;57470;50.034;15.256;2023-04-29T02:44:20;7.72;;;3.15;;
70102;SDS011;57470;50.034;15.256;2023-04-29T02:46:48;8.73;;;4.10;;
70102;SDS011;57470;50.034;15.256;2023-04-29T02:49:16;10.50;;;4.30;;
70102;SDS011;57470;50.034;15.256;2023-04-29T02:51:43;15.05;;;3.97;;
70102;SDS011;57470;50.034;15.256;2023-04-29T02:54:10;9.00;;;4.05;;
70102;SDS011;57470;50.034;15.256;2023-04-29T02:56:37;7.47;;;3.13;;
70102;SDS011;57470;50.034;15.256;2023-04-29T02:59:04;7.97;;;3.57;;
70102;SDS011;57470;50.034;15.256;2023-04-29T03:01:31;10.15;;;3.30;;
70102;SDS011;57470;50.034;15.256;2023-04-29T03:03:57;6.88;;;3.42;;
70102;SDS011;57470;50.034;15.256;2023-04-29T03:06:22;10.27;;;3.27;;
70102;SDS011;57470;50.034;15.256;2023-04-29T03:08:47;9.77;;;3.57;;
70102;SDS011;57470;50.034;15.256;2023-04-29T03:11:13;8.38;;;3.30;;
70102;SDS011;57470;50.034;15.256;2023-04-29T03:13:38;9.20;;;4.20;;
70102;SDS011;57470;50.034;15.256;2023-04-29T03:16:04;6.57;;;2.80;;
70102;SDS011;57470;50.034;15.256;2023-04-29T03:18:30;10.65;;;3.72;;
70102;SDS011;57470;50.034;15.256;2023-04-29T03:20:56;7.27;;;3.33;;
70102;SDS011;57470;50.034;15.256;2023-04-29T03:23:21;7.00;;;3.10;;
70102;SDS011;57470;50.034;15.256;2023-04-29T03:25:47;7.72;;;3.65;;
70102;SDS011;57470;50.034;15.256;2023-04-29T03:28:13;8.57;;;2.47;;
70102;SDS011;57470;50.034;15.256;2023-04-29T03:30:39;9.20;;;3.38;;
70102;SDS011;57470;50.034;15.256;2023-04-29T03:33:04;9.97;;;3.67;;
70102;SDS011;57470;50.034;15.256;2023-04-29T03:35:29;10.03;;;3.27;;
70102;SDS011;57470;50.034;15.256;2023-04-29T03:37:55;8.67;;;3.60;;
70102;SDS011;57470;50.034;15.256;2023-04-29T03:40:21;9.93;;;3.78;;
70102;SDS011;57470;50.034;15.256;2023-04-29T03:42:47;9.47;;;2.93;;
70102;SDS011;57470;50.034;15.256;2023-04-29T03:45:12;8.60;;;3.80;;
70102;SDS011;57470;50.034;15.256;2023-04-29T03:47:38;8.73;;;3.13;;
70102;SDS011;57470;50.034;15.256;2023-04-29T03:50:04;10.05;;;3.28;;
70102;SDS011;57470;50.034;15.256;2023-04-29T03:52:31;8.13;;;2.95;;
70102;SDS011;57470;50.034;15.256;2023-04-29T03:54:56;7.17;;;2.93;;
70102;SDS011;57470;50.034;15.256;2023-04-29T03:57:22;10.77;;;4.27;;
70102;SDS011;57470;50.034;15.256;2023-04-29T03:59:47;8.47;;;4.00;;
70102;SDS011;57470;50.034;15.256;2023-04-29T04:02:15;6.95;;;2.80;;
70102;SDS011;57470;50.034;15.256;2023-04-29T04:04:41;8.07;;;3.47;;
70102;SDS011;57470;50.034;15.256;2023-04-29T04:07:06;7.87;;;3.13;;
70102;SDS011;57470;50.034;15.256;2023-04-29T04:09:32;9.77;;;4.13;;
70102;SDS011;57470;50.034;15.256;2023-04-29T04:11:57;8.50;;;3.10;;
70102;SDS011;57470;50.034;15.256;2023-04-29T04:14:24;10.52;;;3.10;;
70102;SDS011;57470;50.034;15.256;2023-04-29T04:16:49;9.10;;;3.37;;
70102;SDS011;57470;50.034;15.256;2023-04-29T04:19:15;7.17;;;2.90;;
70102;SDS011;57470;50.034;15.256;2023-04-29T04:21:40;8.75;;;3.40;;
70102;SDS011;57470;50.034;15.256;2023-04-29T04:24:06;7.20;;;2.93;;
70102;SDS011;57470;50.034;15.256;2023-04-29T04:26:32;8.73;;;3.77;;
70102;SDS011;57470;50.034;15.256;2023-04-29T04:28:57;9.87;;;4.13;;
70102;SDS011;57470;50.034;15.256;2023-04-29T04:31:23;8.53;;;3.53;;
70102;SDS011;57470;50.034;15.256;2023-04-29T04:33:48;12.60;;;4.20;;
70102;SDS011;57470;50.034;15.256;2023-04-29T04:36:14;8.00;;;3.15;;
70102;SDS011;57470;50.034;15.256;2023-04-29T04:38:39;8.47;;;4.43;;
70102;SDS011;57470;50.034;15.256;2023-04-29T04:41:05;8.50;;;3.07;;
70102;SDS011;57470;50.034;15.256;2023-04-29T04:43:32;5.00;;;1.92;;
70102;SDS011;57470;50.034;15.256;2023-04-29T04:45:57;9.20;;;4.17;;
70102;SDS011;57470;50.034;15.256;2023-04-29T04:48:23;7.80;;;3.33;;
70102;SDS011;57470;50.034;15.256;2023-04-29T04:50:48;10.27;;;4.00;;
70102;SDS011;57470;50.034;15.256;2023-04-29T04:53:13;8.37;;;3.13;;
70102;SDS011;57470;50.034;15.256;2023-04-29T04:55:39;9.83;;;3.17;;
70102;SDS011;57470;50.034;15.256;2023-04-29T04:58:04;7.63;;;3.43;;
70102;SDS011;57470;50.034;15.256;2023-04-29T05:00:30;8.03;;;3.27;;
70102;SDS011;57470;50.034;15.256;2023-04-29T05:02:55;11.07;;;3.90;;
70102;SDS011;57470;50.034;15.256;2023-04-29T05:05:20;9.10;;;3.83;;
70102;SDS011;57470;50.034;15.256;2023-04-29T05:07:46;10.07;;;3.57;;
70102;SDS011;57470;50.034;15.256;2023-04-29T05:10:11;10.67;;;3.80;;
70102;SDS011;57470;50.034;15.256;2023-04-29T05:12:36;9.50;;;3.50;;
70102;SDS011;57470;50.034;15.256;2023-04-29T05:15:02;7.37;;;2.87;;
70102;SDS011;57470;50.034;15.256;2023-04-29T05:17:30;7.38;;;2.63;;
70102;SDS011;57470;50.034;15.256;2023-04-29T05:19:55;7.77;;;2.97;;
70102;SDS011;57470;50.034;15.256;2023-04-29T05:22:21;6.43;;;3.03;;
70102;SDS011;57470;50.034;15.256;2023-04-29T05:24:46;11.13;;;4.07;;
70102;SDS011;57470;50.034;15.256;2023-04-29T05:27:15;8.98;;;3.40;;
70102;SDS011;57470;50.034;15.256;2023-04-29T05:29:41;11.27;;;3.50;;
70102;SDS011;57470;50.034;15.256;2023-04-29T05:32:06;8.17;;;3.43;;
70102;SDS011;57470;50.034;15.256;2023-04-29T05:34:31;6.90;;;2.40;;
70102;SDS011;57470;50.034;15.256;2023-04-29T05:36:57;13.17;;;3.43;;
70102;SDS011;57470;50.034;15.256;2023-04-29T05:39:22;7.70;;;2.57;;
70102;SDS011;57470;50.034;15.256;2023-04-29T05:41:48;7.20;;;3.13;;
70102;SDS011;57470;50.034;15.256;2023-04-29T05:44:13;8.30;;;3.33;;
70102;SDS011;57470;50.034;15.256;2023-04-29T05:46:38;8.70;;;2.50;;
70102;SDS011;57470;50.034;15.256;2023-04-29T05:49:04;6.70;;;2.72;;
70102;SDS011;57470;50.034;15.256;2023-04-29T05:51:29;9.83;;;3.53;;
70102;SDS011;57470;50.034;15.256;2023-04-29T05:53:55;9.95;;;3.72;;
70102;SDS011;57470;50.034;15.256;2023-04-29T05:56:23;6.20;;;2.40;;
70102;SDS011;57470;50.034;15.256;2023-04-29T05:58:48;13.00;;;3.55;;
70102;SDS011;57470;50.034;15.256;2023-04-29T06:01:14;7.47;;;3.00;;
70102;SDS011;57470;50.034;15.256;2023-04-29T06:03:41;9.88;;;3.63;;
70102;SDS011;57470;50.034;15.256;2023-04-29T06:06:06;7.90;;;2.57;;
70102;SDS011;57470;50.034;15.256;2023-04-29T06:08:32;5.87;;;2.67;;
70102;SDS011;57470;50.034;15.256;2023-04-29T06:10:58;8.23;;;3.83;;
70102;SDS011;57470;50.034;15.256;2023-04-29T06:13:23;10.63;;;4.53;;
70102;SDS011;57470;50.034;15.256;2023-04-29T06:15:49;9.57;;;4.57;;
70102;SDS011;57470;50.034;15.256;2023-04-29T06:18:14;10.85;;;5.70;;
70102;SDS011;57470;50.034;15.256;2023-04-29T06:20:40;9.73;;;4.17;;
70102;SDS011;57470;50.034;15.256;2023-04-29T06:23:05;7.17;;;3.20;;
70102;SDS011;57470;50.034;15.256;2023-04-29T06:25:31;8.15;;;2.90;;
70102;SDS011;57470;50.034;15.256;2023-04-29T06:27:56;11.17;;;4.30;;
70102;SDS011;57470;50.034;15.256;2023-04-29T06:30:22;12.50;;;5.38;;
70102;SDS011;57470;50.034;15.256;2023-04-29T06:32:47;12.37;;;6.03;;
70102;SDS011;57470;50.034;15.256;2023-04-29T06:35:13;9.67;;;2.97;;
70102;SDS011;57470;50.034;15.256;2023-04-29T06:37:39;13.35;;;4.07;;
70102;SDS011;57470;50.034;15.256;2023-04-29T06:40:05;20.50;;;9.23;;
70102;SDS011;57470;50.034;15.256;2023-04-29T06:42:31;14.50;;;7.15;;
70102;SDS011;57470;50.034;15.256;2023-04-29T06:44:56;13.33;;;4.30;;
70102;SDS011;57470;50.034;15.256;2023-04-29T06:47:21;12.47;;;5.40;;
70102;SDS011;57470;50.034;15.256;2023-04-29T06:49:47;11.88;;;5.53;;
70102;SDS011;57470;50.034;15.256;2023-04-29T06:52:13;14.30;;;4.70;;
70102;SDS011;57470;50.034;15.256;2023-04-29T06:54:38;15.38;;;5.28;;
70102;SDS011;57470;50.034;15.256;2023-04-29T06:57:04;17.20;;;6.40;;
70102;SDS011;57470;50.034;15.256;2023-04-29T06:59:30;11.60;;;4.65;;
70102;SDS011;57470;50.034;15.256;2023-04-29T07:01:56;10.87;;;4.73;;
70102;SDS011;57470;50.034;15.256;2023-04-29T07:04:22;6.78;;;3.65;;
70102;SDS011;57470;50.034;15.256;2023-04-29T07:06:47;4.60;;;2.23;;
70102;SDS011;57470;50.034;15.256;2023-04-29T07:09:13;10.47;;;2.93;;
70102;SDS011;57470;50.034;15.256;2023-04-29T07:11:38;10.05;;;4.68;;
70102;SDS011;57470;50.034;15.256;2023-04-29T07:14:04;11.90;;;5.00;;
70102;SDS011;57470;50.034;15.256;2023-04-29T07:16:31;15.43;;;6.88;;
70102;SDS011;57470;50.034;15.256;2023-04-29T07:18:56;9.80;;;4.80;;
70102;SDS011;57470;50.034;15.256;2023-04-29T07:21:22;6.07;;;2.47;;
70102;SDS011;57470;50.034;15.256;2023-04-29T07:23:47;5.07;;;1.90;;
70102;SDS011;57470;50.034;15.256;2023-04-29T07:26:13;4.50;;;1.53;;
70102;SDS011;57470;50.034;15.256;2023-04-29T07:28:40;4.65;;;2.08;;
70102;SDS011;57470;50.034;15.256;2023-04-29T07:31:06;7.38;;;3.38;;
70102;SDS011;57470;50.034;15.256;2023-04-29T07:33:32;7.17;;;2.70;;
70102;SDS011;57470;50.034;15.256;2023-04-29T07:35:58;10.52;;;4.25;;
70102;SDS011;57470;50.034;15.256;2023-04-29T07:38:24;9.03;;;2.93;;
70102;SDS011;57470;50.034;15.256;2023-04-29T07:40:50;8.57;;;3.40;;
70102;SDS011;57470;50.034;15.256;2023-04-29T07:43:16;8.37;;;2.67;;
70102;SDS011;57470;50.034;15.256;2023-04-29T07:45:41;6.03;;;2.37;;
70102;SDS011;57470;50.034;15.256;2023-04-29T07:48:06;8.97;;;3.90;;
70102;SDS011;57470;50.034;15.256;2023-04-29T07:50:35;16.33;;;5.83;;
70102;SDS011;57470;50.034;15.256;2023-04-29T07:53:02;19.15;;;8.93;;
70102;SDS011;57470;50.034;15.256;2023-04-29T07:55:28;41.78;;;15.07;;
70102;SDS011;57470;50.034;15.256;2023-04-29T07:57:55;21.50;;;10.88;;
70102;SDS011;57470;50.034;15.256;2023-04-29T08:00:21;9.37;;;4.53;;
70102;SDS011;57470;50.034;15.256;2023-04-29T08:02:50;9.93;;;3.63;;
70102;SDS011;57470;50.034;15.256;2023-04-29T08:05:16;7.38;;;2.33;;
70102;SDS011;57470;50.034;15.256;2023-04-29T08:07:42;7.70;;;3.03;;
70102;SDS011;57470;50.034;15.256;2023-04-29T08:10:08;9.93;;;4.53;;
70102;SDS011;57470;50.034;15.256;2023-04-29T08:12:33;8.93;;;4.03;;
70102;SDS011;57470;50.034;15.256;2023-04-29T08:14:59;6.93;;;2.67;;
70102;SDS011;57470;50.034;15.256;2023-04-29T08:17:24;8.77;;;3.65;;
70102;SDS011;57470;50.034;15.256;2023-04-29T08:19:50;5.50;;;2.30;;
70102;SDS011;57470;50.034;15.256;2023-04-29T08:22:15;8.10;;;2.43;;
70102;SDS011;57470;50.034;15.256;2023-04-29T08:24:40;8.57;;;3.87;;
70102;SDS011;57470;50.034;15.256;2023-04-29T08:27:06;9.70;;;3.30;;
70102;SDS011;57470;50.034;15.256;2023-04-29T08:29:32;5.80;;;2.20;;
70102;SDS011;57470;50.034;15.256;2023-04-29T08:31:58;11.65;;;4.53;;
70102;SDS011;57470;50.034;15.256;2023-04-29T08:34:23;11.57;;;4.43;;
70102;SDS011;57470;50.034;15.256;2023-04-29T08:36:49;11.50;;;4.37;;
70102;SDS011;57470;50.034;15.256;2023-04-29T08:39:14;9.10;;;3.67;;
70102;SDS011;57470;50.034;15.256;2023-04-29T08:41:39;9.00;;;3.43;;
70102;SDS011;57470;50.034;15.256;2023-04-29T08:44:08;9.75;;;3.60;;
70102;SDS011;57470;50.034;15.256;2023-04-29T08:46:33;8.20;;;3.87;;
70102;SDS011;57470;50.034;15.256;2023-04-29T08:48:58;8.90;;;3.50;;
70102;SDS011;57470;50.034;15.256;2023-04-29T08:51:27;7.82;;;3.13;;
70102;SDS011;57470;50.034;15.256;2023-04-29T08:53:53;9.10;;;3.93;;
70102;SDS011;57470;50.034;15.256;2023-04-29T08:56:20;8.73;;;3.90;;
70102;SDS011;57470;50.034;15.256;2023-04-29T08:58:45;8.80;;;4.00;;
70102;SDS011;57470;50.034;15.256;2023-04-29T09:01:15;10.23;;;3.97;;
70102;SDS011;57470;50.034;15.256;2023-04-29T09:03:56;10.27;;;4.05;;
70102;SDS011;57470;50.034;15.256;2023-04-29T09:06:34;8.43;;;3.63;;
70102;SDS011;57470;50.034;15.256;2023-04-29T09:08:59;12.60;;;4.77;;
70102;SDS011;57470;50.034;15.256;2023-04-29T09:11:27;17.92;;;5.57;;
70102;SDS011;57470;50.034;15.256;2023-04-29T09:14:00;15.15;;;6.10;;
70102;SDS011;57470;50.034;15.256;2023-04-29T09:16:29;7.80;;;3.17;;
70102;SDS011;57470;50.034;15.256;2023-04-29T09:18:55;6.97;;;3.43;;
70102;SDS011;57470;50.034;15.256;2023-04-29T09:21:24;7.07;;;2.72;;
70102;SDS011;57470;50.034;15.256;2023-04-29T09:23:52;8.90;;;3.08;;
70102;SDS011;57470;50.034;15.256;2023-04-29T09:26:18;5.63;;;1.83;;
70102;SDS011;57470;50.034;15.256;2023-04-29T09:28:44;7.55;;;3.63;;
70102;SDS011;57470;50.034;15.256;2023-04-29T09:31:12;8.80;;;3.78;;
70102;SDS011;57470;50.034;15.256;2023-04-29T09:33:51;5.38;;;2.20;;
70102;SDS011;57470;50.034;15.256;2023-04-29T09:36:37;8.10;;;2.97;;
70102;SDS011;57470;50.034;15.256;2023-04-29T09:39:11;8.48;;;3.35;;
70102;SDS011;57470;50.034;15.256;2023-04-29T09:41:39;7.05;;;3.00;;
70102;SDS011;57470;50.034;15.256;2023-04-29T09:44:23;7.13;;;3.05;;
70102;SDS011;57470;50.034;15.256;2023-04-29T09:46:54;11.77;;;3.63;;
70102;SDS011;57470;50.034;15.256;2023-04-29T09:49:27;7.93;;;3.50;;
70102;SDS011;57470;50.034;15.256;2023-04-29T09:51:57;8.88;;;3.85;;
70102;SDS011;57470;50.034;15.256;2023-04-29T09:54:28;7.18;;;3.10;;
70102;SDS011;57470;50.034;15.256;2023-04-29T09:56:56;9.07;;;3.70;;
70102;SDS011;57470;50.034;15.256;2023-04-29T09:59:22;8.20;;;3.45;;
70102;SDS011;57470;50.034;15.256;2023-04-29T10:01:49;7.93;;;3.67;;
70102;SDS011;57470;50.034;15.256;2023-04-29T10:04:16;8.48;;;3.28;;
70102;SDS011;57470;50.034;15.256;2023-04-29T10:06:43;7.95;;;3.97;;
70102;SDS011;57470;50.034;15.256;2023-04-29T10:09:13;7.85;;;3.58;;
70102;SDS011;57470;50.034;15.256;2023-04-29T10:11:40;9.60;;;3.97;;
70102;SDS011;57470;50.034;15.256;2023-04-29T10:14:06;9.77;;;3.90;;
70102;SDS011;57470;50.034;15.256;2023-04-29T10:16:39;9.30;;;3.75;;
70102;SDS011;57470;50.034;15.256;2023-04-29T10:19:11;7.45;;;3.55;;
70102;SDS011;57470;50.034;15.256;2023-04-29T10:21:39;10.10;;;4.13;;
70102;SDS011;57470;50.034;15.256;2023-04-29T10:24:05;7.33;;;3.07;;
70102;SDS011;57470;50.034;15.256;2023-04-29T10:26:32;7.97;;;3.30;;
70102;SDS011;57470;50.034;15.256;2023-04-29T10:29:01;8.15;;;3.47;;
70102;SDS011;57470;50.034;15.256;2023-04-29T10:31:29;6.60;;;2.38;;
70102;SDS011;57470;50.034;15.256;2023-04-29T10:33:55;6.40;;;2.90;;
70102;SDS011;57470;50.034;15.256;2023-04-29T10:36:23;6.93;;;2.83;;
70102;SDS011;57470;50.034;15.256;2023-04-29T10:38:52;5.95;;;2.30;;
70102;SDS011;57470;50.034;15.256;2023-04-29T10:41:20;4.93;;;1.92;;
70102;SDS011;57470;50.034;15.256;2023-04-29T10:43:50;5.13;;;1.92;;
70102;SDS011;57470;50.034;15.256;2023-04-29T10:46:17;5.60;;;2.17;;
70102;SDS011;57470;50.034;15.256;2023-04-29T10:48:44;5.33;;;2.10;;
70102;SDS011;57470;50.034;15.256;2023-04-29T10:51:26;4.32;;;1.50;;
70102;SDS011;57470;50.034;15.256;2023-04-29T10:54:13;5.53;;;2.20;;
70102;SDS011;57470;50.034;15.256;2023-04-29T10:56:50;4.88;;;1.30;;
70102;SDS011;57470;50.034;15.256;2023-04-29T10:59:20;4.25;;;1.35;;
70102;SDS011;57470;50.034;15.256;2023-04-29T11:01:48;4.00;;;1.50;;
70102;SDS011;57470;50.034;15.256;2023-04-29T11:04:15;5.50;;;1.60;;
70102;SDS011;57470;50.034;15.256;2023-04-29T11:06:44;4.88;;;2.10;;
70102;SDS011;57470;50.034;15.256;2023-04-29T11:09:18;4.97;;;1.77;;
70102;SDS011;57470;50.034;15.256;2023-04-29T11:12:00;11.02;;;2.58;;
70102;SDS011;57470;50.034;15.256;2023-04-29T11:17:07;5.50;;;2.00;;
70102;SDS011;57470;50.034;15.256;2023-04-29T11:19:33;5.75;;;1.98;;
70102;SDS011;57470;50.034;15.256;2023-04-29T11:22:42;6.07;;;2.25;;
70102;SDS011;57470;50.034;15.256;2023-04-29T11:24:55;5.72;;;2.17;;
70102;SDS011;57470;50.034;15.256;2023-04-29T11:27:24;7.00;;;2.93;;
70102;SDS011;57470;50.034;15.256;2023-04-29T11:29:54;7.45;;;2.15;;
70102;SDS011;57470;50.034;15.256;2023-04-29T11:32:27;5.65;;;2.40;;
70102;SDS011;57470;50.034;15.256;2023-04-29T11:35:07;15.90;;;8.90;;
70102;SDS011;57470;50.034;15.256;2023-04-29T11:37:38;9.48;;;4.60;;
70102;SDS011;57470;50.034;15.256;2023-04-29T11:40:04;7.87;;;3.53;;
70102;SDS011;57470;50.034;15.256;2023-04-29T11:42:33;8.15;;;3.70;;
70102;SDS011;57470;50.034;15.256;2023-04-29T11:45:18;8.15;;;3.22;;
70102;SDS011;57470;50.034;15.256;2023-04-29T11:47:45;5.60;;;1.87;;
70102;SDS011;57470;50.034;15.256;2023-04-29T11:50:11;6.65;;;2.50;;
70102;SDS011;57470;50.034;15.256;2023-04-29T11:52:39;7.85;;;3.47;;
70102;SDS011;57470;50.034;15.256;2023-04-29T11:55:08;7.37;;;3.20;;
70102;SDS011;57470;50.034;15.256;2023-04-29T11:57:35;7.17;;;3.03;;
70102;SDS011;57470;50.034;15.256;2023-04-29T12:00:01;7.65;;;3.60;;
70102;SDS011;57470;50.034;15.256;2023-04-29T12:02:32;8.27;;;2.75;;
70102;SDS011;57470;50.034;15.256;2023-04-29T12:04:59;7.13;;;3.17;;
70102;SDS011;57470;50.034;15.256;2023-04-29T12:07:29;11.60;;;5.13;;
70102;SDS011;57470;50.034;15.256;2023-04-29T12:09:55;8.65;;;3.85;;
70102;SDS011;57470;50.034;15.256;2023-04-29T12:12:24;8.85;;;3.75;;
70102;SDS011;57470;50.034;15.256;2023-04-29T12:14:51;9.30;;;3.77;;
70102;SDS011;57470;50.034;15.256;2023-04-29T12:17:17;10.25;;;4.40;;
70102;SDS011;57470;50.034;15.256;2023-04-29T12:19:44;10.65;;;4.45;;
70102;SDS011;57470;50.034;15.256;2023-04-29T12:22:10;9.27;;;3.80;;
70102;SDS011;57470;50.034;15.256;2023-04-29T12:24:36;10.95;;;4.80;;
70102;SDS011;57470;50.034;15.256;2023-04-29T12:27:03;9.57;;;5.33;;
70102;SDS011;57470;50.034;15.256;2023-04-29T12:29:32;10.88;;;5.43;;
70102;SDS011;57470;50.034;15.256;2023-04-29T12:31:58;9.87;;;4.50;;
70102;SDS011;57470;50.034;15.256;2023-04-29T12:34:32;9.10;;;3.40;;
70102;SDS011;57470;50.034;15.256;2023-04-29T12:36:58;8.02;;;3.78;;
70102;SDS011;57470;50.034;15.256;2023-04-29T12:39:24;10.27;;;4.87;;
70102;SDS011;57470;50.034;15.256;2023-04-29T12:41:53;15.38;;;4.10;;
70102;SDS011;57470;50.034;15.256;2023-04-29T12:44:23;7.47;;;3.00;;
70102;SDS011;57470;50.034;15.256;2023-04-29T12:46:49;6.90;;;3.13;;
70102;SDS011;57470;50.034;15.256;2023-04-29T12:49:16;6.05;;;2.13;;
70102;SDS011;57470;50.034;15.256;2023-04-29T12:51:43;5.23;;;1.90;;
70102;SDS011;57470;50.034;15.256;2023-04-29T12:54:08;5.00;;;1.67;;
70102;SDS011;57470;50.034;15.256;2023-04-29T12:56:34;6.00;;;2.20;;
70102;SDS011;57470;50.034;15.256;2023-04-29T12:59:09;6.13;;;2.65;;
70102;SDS011;57470;50.034;15.256;2023-04-29T13:01:35;7.73;;;2.57;;
70102;SDS011;57470;50.034;15.256;2023-04-29T13:04:01;6.22;;;2.08;;
70102;SDS011;57470;50.034;15.256;2023-04-29T13:06:28;6.28;;;2.25;;
70102;SDS011;57470;50.034;15.256;2023-04-29T13:08:55;5.10;;;1.67;;
70102;SDS011;57470;50.034;15.256;2023-04-29T13:11:20;5.57;;;1.93;;
70102;SDS011;57470;50.034;15.256;2023-04-29T13:13:46;10.07;;;2.27;;
70102;SDS011;57470;50.034;15.256;2023-04-29T13:16:11;6.30;;;2.33;;
70102;SDS011;57470;50.034;15.256;2023-04-29T13:18:36;5.50;;;1.80;;
70102;SDS011;57470;50.034;15.256;2023-04-29T13:21:02;7.15;;;2.50;;
70102;SDS011;57470;50.034;15.256;2023-04-29T13:23:27;5.53;;;2.03;;
70102;SDS011;57470;50.034;15.256;2023-04-29T13:25:55;6.35;;;2.20;;
70102;SDS011;57470;50.034;15.256;2023-04-29T13:28:21;6.10;;;2.13;;
70102;SDS011;57470;50.034;15.256;2023-04-29T13:30:46;7.95;;;2.33;;
70102;SDS011;57470;50.034;15.256;2023-04-29T13:33:12;5.83;;;2.10;;
70102;SDS011;57470;50.034;15.256;2023-04-29T13:35:37;5.50;;;2.00;;
70102;SDS011;57470;50.034;15.256;2023-04-29T13:38:04;6.93;;;2.22;;
70102;SDS011;57470;50.034;15.256;2023-04-29T13:40:30;6.43;;;2.57;;
70102;SDS011;57470;50.034;15.256;2023-04-29T13:42:55;5.57;;;1.98;;
70102;SDS011;57470;50.034;15.256;2023-04-29T13:45:21;4.90;;;1.77;;
70102;SDS011;57470;50.034;15.256;2023-04-29T13:47:46;7.70;;;2.43;;
70102;SDS011;57470;50.034;15.256;2023-04-29T13:50:12;9.40;;;2.97;;
70102;SDS011;57470;50.034;15.256;2023-04-29T13:52:37;9.67;;;3.97;;
70102;SDS011;57470;50.034;15.256;2023-04-29T13:55:03;5.83;;;2.47;;
70102;SDS011;57470;50.034;15.256;2023-04-29T13:57:28;6.22;;;2.17;;
70102;SDS011;57470;50.034;15.256;2023-04-29T13:59:54;5.20;;;2.17;;
70102;SDS011;57470;50.034;15.256;2023-04-29T14:02:20;5.33;;;2.07;;
70102;SDS011;57470;50.034;15.256;2023-04-29T14:04:45;7.45;;;3.10;;
70102;SDS011;57470;50.034;15.256;2023-04-29T14:07:12;4.30;;;1.25;;
70102;SDS011;57470;50.034;15.256;2023-04-29T14:09:38;5.20;;;1.67;;
70102;SDS011;57470;50.034;15.256;2023-04-29T14:12:04;4.05;;;1.00;;
70102;SDS011;57470;50.034;15.256;2023-04-29T14:14:30;5.23;;;2.30;;
70102;SDS011;57470;50.034;15.256;2023-04-29T14:16:55;4.43;;;1.33;;
70102;SDS011;57470;50.034;15.256;2023-04-29T14:19:21;4.32;;;1.17;;
70102;SDS011;57470;50.034;15.256;2023-04-29T14:21:47;3.73;;;1.00;;
70102;SDS011;57470;50.034;15.256;2023-04-29T14:24:12;2.72;;;0.52;;
70102;SDS011;57470;50.034;15.256;2023-04-29T14:26:37;3.37;;;0.80;;
70102;SDS011;57470;50.034;15.256;2023-04-29T14:29:03;3.38;;;1.15;;
70102;SDS011;57470;50.034;15.256;2023-04-29T14:31:29;4.63;;;0.80;;
70102;SDS011;57470;50.034;15.256;2023-04-29T14:33:58;4.50;;;1.08;;
70102;SDS011;57470;50.034;15.256;2023-04-29T14:36:23;4.60;;;1.20;;
70102;SDS011;57470;50.034;15.256;2023-04-29T14:38:50;7.18;;;1.42;;
70102;SDS011;57470;50.034;15.256;2023-04-29T14:41:15;5.27;;;1.90;;
70102;SDS011;57470;50.034;15.256;2023-04-29T14:43:41;10.13;;;4.77;;